sensor_id;sensor_type;location;lat;lon;timestamp;temperature;humidity
43920;DHT22;29578;51.946;5.874;2023-04-06T00:00:47;3.90;69.00
43920;DHT22;29578;51.946;5.874;2023-04-06T00:03:13;3.80;69.00
43920;DHT22;29578;51.946;5.874;2023-04-06T00:05:38;3.90;69.10
43920;DHT22;29578;51.946;5.874;2023-04-06T00:08:04;3.90;69.10
43920;DHT22;29578;51.946;5.874;2023-04-06T00:10:30;3.80;69.10
43920;DHT22;29578;51.946;5.874;2023-04-06T00:12:56;3.80;69.20
43920;DHT22;29578;51.946;5.874;2023-04-06T00:15:22;3.80;69.20
43920;DHT22;29578;51.946;5.874;2023-04-06T00:17:48;3.80;69.20
43920;DHT22;29578;51.946;5.874;2023-04-06T00:20:14;3.80;69.20
43920;DHT22;29578;51.946;5.874;2023-04-06T00:22:40;3.80;69.30
43920;DHT22;29578;51.946;5.874;2023-04-06T00:25:06;3.80;69.40
43920;DHT22;29578;51.946;5.874;2023-04-06T00:27:32;3.70;69.30
43920;DHT22;29578;51.946;5.874;2023-04-06T00:29:58;3.70;69.40
43920;DHT22;29578;51.946;5.874;2023-04-06T00:32:23;3.70;69.50
43920;DHT22;29578;51.946;5.874;2023-04-06T00:34:49;3.70;69.50
43920;DHT22;29578;51.946;5.874;2023-04-06T00:37:14;3.60;69.60
43920;DHT22;29578;51.946;5.874;2023-04-06T00:39:40;3.60;69.70
43920;DHT22;29578;51.946;5.874;2023-04-06T00:42:11;3.50;69.70
43920;DHT22;29578;51.946;5.874;2023-04-06T00:44:40;3.60;69.80
43920;DHT22;29578;51.946;5.874;2023-04-06T00:47:05;3.50;69.80
43920;DHT22;29578;51.946;5.874;2023-04-06T00:49:32;3.50;69.80
43920;DHT22;29578;51.946;5.874;2023-04-06T00:51:58;3.50;70.00
43920;DHT22;29578;51.946;5.874;2023-04-06T00:54:24;3.50;70.00
43920;DHT22;29578;51.946;5.874;2023-04-06T00:56:50;3.50;70.20
43920;DHT22;29578;51.946;5.874;2023-04-06T00:59:16;3.40;70.20
43920;DHT22;29578;51.946;5.874;2023-04-06T01:01:41;3.30;70.20
43920;DHT22;29578;51.946;5.874;2023-04-06T01:04:07;3.30;70.40
43920;DHT22;29578;51.946;5.874;2023-04-06T01:06:32;3.40;70.50
43920;DHT22;29578;51.946;5.874;2023-04-06T01:08:58;3.40;70.50
43920;DHT22;29578;51.946;5.874;2023-04-06T01:11:24;3.30;70.50
43920;DHT22;29578;51.946;5.874;2023-04-06T01:13:50;3.30;70.50
43920;DHT22;29578;51.946;5.874;2023-04-06T01:16:16;3.30;70.50
43920;DHT22;29578;51.946;5.874;2023-04-06T01:18:41;3.30;70.50
43920;DHT22;29578;51.946;5.874;2023-04-06T01:21:08;3.30;70.50
43920;DHT22;29578;51.946;5.874;2023-04-06T01:23:34;3.30;70.50
43920;DHT22;29578;51.946;5.874;2023-04-06T01:26:00;3.30;70.60
43920;DHT22;29578;51.946;5.874;2023-04-06T01:28:26;3.20;70.70
43920;DHT22;29578;51.946;5.874;2023-04-06T01:30:51;3.20;70.80
43920;DHT22;29578;51.946;5.874;2023-04-06T01:33:17;3.20;70.90
43920;DHT22;29578;51.946;5.874;2023-04-06T01:35:42;3.10;71.00
43920;DHT22;29578;51.946;5.874;2023-04-06T01:38:08;3.10;71.10
43920;DHT22;29578;51.946;5.874;2023-04-06T01:40:34;3.00;71.10
43920;DHT22;29578;51.946;5.874;2023-04-06T01:42:59;3.00;71.80
43920;DHT22;29578;51.946;5.874;2023-04-06T01:45:25;3.00;71.20
43920;DHT22;29578;51.946;5.874;2023-04-06T01:47:51;3.00;71.30
43920;DHT22;29578;51.946;5.874;2023-04-06T01:50:17;3.00;71.40
43920;DHT22;29578;51.946;5.874;2023-04-06T01:52:42;2.90;71.40
43920;DHT22;29578;51.946;5.874;2023-04-06T01:55:08;2.90;71.50
43920;DHT22;29578;51.946;5.874;2023-04-06T01:57:33;2.90;71.60
43920;DHT22;29578;51.946;5.874;2023-04-06T02:00:00;2.80;71.60
43920;DHT22;29578;51.946;5.874;2023-04-06T02:02:25;2.80;71.70
43920;DHT22;29578;51.946;5.874;2023-04-06T02:04:51;2.80;71.70
43920;DHT22;29578;51.946;5.874;2023-04-06T02:07:17;2.80;71.80
43920;DHT22;29578;51.946;5.874;2023-04-06T02:09:42;2.80;71.80
43920;DHT22;29578;51.946;5.874;2023-04-06T02:12:08;2.70;71.80
43920;DHT22;29578;51.946;5.874;2023-04-06T02:14:33;2.70;71.80
43920;DHT22;29578;51.946;5.874;2023-04-06T02:16:59;2.70;71.80
43920;DHT22;29578;51.946;5.874;2023-04-06T02:19:25;2.80;71.80
43920;DHT22;29578;51.946;5.874;2023-04-06T02:21:51;2.80;71.70
43920;DHT22;29578;51.946;5.874;2023-04-06T02:24:17;2.80;71.70
43920;DHT22;29578;51.946;5.874;2023-04-06T02:26:42;2.80;71.70
43920;DHT22;29578;51.946;5.874;2023-04-06T02:29:08;2.90;71.70
43920;DHT22;29578;51.946;5.874;2023-04-06T02:31:33;2.80;71.70
43920;DHT22;29578;51.946;5.874;2023-04-06T02:33:59;2.80;71.70
43920;DHT22;29578;51.946;5.874;2023-04-06T02:36:25;2.70;71.70
43920;DHT22;29578;51.946;5.874;2023-04-06T02:38:51;2.80;71.70
43920;DHT22;29578;51.946;5.874;2023-04-06T02:41:17;2.80;71.70
43920;DHT22;29578;51.946;5.874;2023-04-06T02:43:42;2.90;71.70
43920;DHT22;29578;51.946;5.874;2023-04-06T02:46:08;2.80;71.70
43920;DHT22;29578;51.946;5.874;2023-04-06T02:48:33;2.80;71.70
43920;DHT22;29578;51.946;5.874;2023-04-06T02:51:01;2.90;71.80
43920;DHT22;29578;51.946;5.874;2023-04-06T02:53:27;2.90;71.70
43920;DHT22;29578;51.946;5.874;2023-04-06T02:55:53;3.00;71.80
43920;DHT22;29578;51.946;5.874;2023-04-06T02:58:18;2.90;71.70
43920;DHT22;29578;51.946;5.874;2023-04-06T03:00:44;2.90;71.70
43920;DHT22;29578;51.946;5.874;2023-04-06T03:03:10;2.90;71.70
43920;DHT22;29578;51.946;5.874;2023-04-06T03:05:36;2.90;71.70
43920;DHT22;29578;51.946;5.874;2023-04-06T03:08:01;2.90;71.70
43920;DHT22;29578;51.946;5.874;2023-04-06T03:10:27;3.00;71.70
43920;DHT22;29578;51.946;5.874;2023-04-06T03:12:52;3.00;71.70
43920;DHT22;29578;51.946;5.874;2023-04-06T03:15:18;3.00;71.60
43920;DHT22;29578;51.946;5.874;2023-04-06T03:17:44;3.00;71.60
43920;DHT22;29578;51.946;5.874;2023-04-06T03:20:09;3.10;71.70
43920;DHT22;29578;51.946;5.874;2023-04-06T03:22:35;3.00;71.60
43920;DHT22;29578;51.946;5.874;2023-04-06T03:25:01;3.10;71.60
43920;DHT22;29578;51.946;5.874;2023-04-06T03:27:27;3.10;71.60
43920;DHT22;29578;51.946;5.874;2023-04-06T03:29:52;3.10;71.60
43920;DHT22;29578;51.946;5.874;2023-04-06T03:32:18;3.10;71.50
43920;DHT22;29578;51.946;5.874;2023-04-06T03:34:43;3.20;71.60
43920;DHT22;29578;51.946;5.874;2023-04-06T03:37:09;3.20;71.60
43920;DHT22;29578;51.946;5.874;2023-04-06T03:39:34;3.20;71.60
43920;DHT22;29578;51.946;5.874;2023-04-06T03:42:00;3.20;71.60
43920;DHT22;29578;51.946;5.874;2023-04-06T03:44:26;3.20;71.60
43920;DHT22;29578;51.946;5.874;2023-04-06T03:46:51;3.20;71.60
43920;DHT22;29578;51.946;5.874;2023-04-06T03:49:17;3.20;71.60
43920;DHT22;29578;51.946;5.874;2023-04-06T03:51:42;3.30;71.70
43920;DHT22;29578;51.946;5.874;2023-04-06T03:54:08;3.30;72.30
43920;DHT22;29578;51.946;5.874;2023-04-06T03:56:34;3.30;71.70
43920;DHT22;29578;51.946;5.874;2023-04-06T03:58:59;3.30;71.70
43920;DHT22;29578;51.946;5.874;2023-04-06T04:01:25;3.30;71.70
43920;DHT22;29578;51.946;5.874;2023-04-06T04:03:51;3.30;71.70
43920;DHT22;29578;51.946;5.874;2023-04-06T04:06:17;3.40;71.70
43920;DHT22;29578;51.946;5.874;2023-04-06T04:08:43;3.30;71.70
43920;DHT22;29578;51.946;5.874;2023-04-06T04:11:08;3.30;71.70
43920;DHT22;29578;51.946;5.874;2023-04-06T04:13:34;3.40;71.70
43920;DHT22;29578;51.946;5.874;2023-04-06T04:15:59;3.30;71.70
43920;DHT22;29578;51.946;5.874;2023-04-06T04:18:25;3.40;71.70
43920;DHT22;29578;51.946;5.874;2023-04-06T04:20:51;3.40;71.70
43920;DHT22;29578;51.946;5.874;2023-04-06T04:23:16;3.40;71.70
43920;DHT22;29578;51.946;5.874;2023-04-06T04:25:43;3.40;71.70
43920;DHT22;29578;51.946;5.874;2023-04-06T04:28:09;3.50;71.80
43920;DHT22;29578;51.946;5.874;2023-04-06T04:30:34;3.50;71.70
43920;DHT22;29578;51.946;5.874;2023-04-06T04:33:00;3.50;71.70
43920;DHT22;29578;51.946;5.874;2023-04-06T04:35:26;3.40;71.70
43920;DHT22;29578;51.946;5.874;2023-04-06T04:37:52;3.40;71.80
43920;DHT22;29578;51.946;5.874;2023-04-06T04:40:18;3.50;71.90
43920;DHT22;29578;51.946;5.874;2023-04-06T04:42:43;3.50;71.90
43920;DHT22;29578;51.946;5.874;2023-04-06T04:45:09;3.50;71.90
43920;DHT22;29578;51.946;5.874;2023-04-06T04:47:35;3.50;71.90
43920;DHT22;29578;51.946;5.874;2023-04-06T04:50:03;3.50;72.00
43920;DHT22;29578;51.946;5.874;2023-04-06T04:52:29;3.60;72.00
43920;DHT22;29578;51.946;5.874;2023-04-06T04:54:54;3.50;72.00
43920;DHT22;29578;51.946;5.874;2023-04-06T04:57:22;3.60;72.00
43920;DHT22;29578;51.946;5.874;2023-04-06T04:59:47;3.50;72.00
43920;DHT22;29578;51.946;5.874;2023-04-06T05:02:14;3.50;72.00
43920;DHT22;29578;51.946;5.874;2023-04-06T05:04:40;3.60;72.10
43920;DHT22;29578;51.946;5.874;2023-04-06T05:07:07;3.60;72.00
43920;DHT22;29578;51.946;5.874;2023-04-06T05:09:33;3.50;72.00
43920;DHT22;29578;51.946;5.874;2023-04-06T05:11:59;3.60;72.00
43920;DHT22;29578;51.946;5.874;2023-04-06T05:14:26;3.60;72.10
43920;DHT22;29578;51.946;5.874;2023-04-06T05:16:52;3.60;72.10
43920;DHT22;29578;51.946;5.874;2023-04-06T05:19:17;3.60;72.10
43920;DHT22;29578;51.946;5.874;2023-04-06T05:21:43;3.60;72.20
43920;DHT22;29578;51.946;5.874;2023-04-06T05:24:08;3.70;72.20
43920;DHT22;29578;51.946;5.874;2023-04-06T05:26:34;3.60;72.10
43920;DHT22;29578;51.946;5.874;2023-04-06T05:29:00;3.70;72.20
43920;DHT22;29578;51.946;5.874;2023-04-06T05:31:26;3.70;72.10
43920;DHT22;29578;51.946;5.874;2023-04-06T05:33:52;3.70;72.10
43920;DHT22;29578;51.946;5.874;2023-04-06T05:36:17;3.80;72.20
43920;DHT22;29578;51.946;5.874;2023-04-06T05:38:43;3.70;72.00
43920;DHT22;29578;51.946;5.874;2023-04-06T05:41:09;3.80;72.10
43920;DHT22;29578;51.946;5.874;2023-04-06T05:43:34;3.80;72.00
43920;DHT22;29578;51.946;5.874;2023-04-06T05:46:00;3.90;72.00
43920;DHT22;29578;51.946;5.874;2023-04-06T05:48:26;3.90;71.90
43920;DHT22;29578;51.946;5.874;2023-04-06T05:50:51;4.00;71.90
43920;DHT22;29578;51.946;5.874;2023-04-06T05:53:17;4.10;71.80
43920;DHT22;29578;51.946;5.874;2023-04-06T05:55:43;4.10;71.80
43920;DHT22;29578;51.946;5.874;2023-04-06T05:58:09;4.10;71.70
43920;DHT22;29578;51.946;5.874;2023-04-06T06:00:35;4.20;71.60
43920;DHT22;29578;51.946;5.874;2023-04-06T06:03:00;4.30;71.40
43920;DHT22;29578;51.946;5.874;2023-04-06T06:05:29;4.40;71.40
43920;DHT22;29578;51.946;5.874;2023-04-06T06:07:55;4.40;71.30
43920;DHT22;29578;51.946;5.874;2023-04-06T06:10:21;4.50;71.20
43920;DHT22;29578;51.946;5.874;2023-04-06T06:12:46;4.50;71.10
43920;DHT22;29578;51.946;5.874;2023-04-06T06:15:12;4.70;71.20
43920;DHT22;29578;51.946;5.874;2023-04-06T06:17:38;4.70;71.00
43920;DHT22;29578;51.946;5.874;2023-04-06T06:20:06;4.80;70.90
43920;DHT22;29578;51.946;5.874;2023-04-06T06:22:31;4.80;70.70
43920;DHT22;29578;51.946;5.874;2023-04-06T06:24:57;4.90;70.50
43920;DHT22;29578;51.946;5.874;2023-04-06T06:27:23;5.00;70.40
43920;DHT22;29578;51.946;5.874;2023-04-06T06:29:48;5.10;70.40
43920;DHT22;29578;51.946;5.874;2023-04-06T06:32:14;5.10;70.30
43920;DHT22;29578;51.946;5.874;2023-04-06T06:34:40;5.20;70.20
43920;DHT22;29578;51.946;5.874;2023-04-06T06:37:05;5.30;70.10
43920;DHT22;29578;51.946;5.874;2023-04-06T06:39:31;5.40;70.00
43920;DHT22;29578;51.946;5.874;2023-04-06T06:41:57;5.50;69.90
43920;DHT22;29578;51.946;5.874;2023-04-06T06:44:26;5.70;70.50
43920;DHT22;29578;51.946;5.874;2023-04-06T06:46:51;5.70;69.60
43920;DHT22;29578;51.946;5.874;2023-04-06T06:49:17;5.90;69.50
43920;DHT22;29578;51.946;5.874;2023-04-06T06:51:43;6.00;70.00
43920;DHT22;29578;51.946;5.874;2023-04-06T06:54:09;6.10;69.30
43920;DHT22;29578;51.946;5.874;2023-04-06T06:56:35;6.20;69.20
43920;DHT22;29578;51.946;5.874;2023-04-06T06:59:03;6.40;69.10
43920;DHT22;29578;51.946;5.874;2023-04-06T07:01:29;6.40;69.00
43920;DHT22;29578;51.946;5.874;2023-04-06T07:03:55;6.50;68.90
43920;DHT22;29578;51.946;5.874;2023-04-06T07:06:20;6.50;68.80
43920;DHT22;29578;51.946;5.874;2023-04-06T07:08:46;6.60;68.80
43920;DHT22;29578;51.946;5.874;2023-04-06T07:11:12;6.60;68.80
43920;DHT22;29578;51.946;5.874;2023-04-06T07:13:37;6.70;68.80
43920;DHT22;29578;51.946;5.874;2023-04-06T07:16:03;6.80;69.50
43920;DHT22;29578;51.946;5.874;2023-04-06T07:18:29;6.80;68.80
43920;DHT22;29578;51.946;5.874;2023-04-06T07:20:55;6.90;68.80
43920;DHT22;29578;51.946;5.874;2023-04-06T07:23:20;7.00;68.70
43920;DHT22;29578;51.946;5.874;2023-04-06T07:25:46;7.10;68.60
43920;DHT22;29578;51.946;5.874;2023-04-06T07:28:12;7.20;68.50
43920;DHT22;29578;51.946;5.874;2023-04-06T07:30:38;7.20;68.40
43920;DHT22;29578;51.946;5.874;2023-04-06T07:33:05;7.30;68.40
43920;DHT22;29578;51.946;5.874;2023-04-06T07:35:31;7.40;68.30
43920;DHT22;29578;51.946;5.874;2023-04-06T07:37:57;7.60;68.30
43920;DHT22;29578;51.946;5.874;2023-04-06T07:40:22;7.70;68.20
43920;DHT22;29578;51.946;5.874;2023-04-06T07:42:48;7.70;68.00
43920;DHT22;29578;51.946;5.874;2023-04-06T07:45:14;7.90;68.00
43920;DHT22;29578;51.946;5.874;2023-04-06T07:47:41;8.00;68.00
43920;DHT22;29578;51.946;5.874;2023-04-06T07:50:07;8.00;67.90
43920;DHT22;29578;51.946;5.874;2023-04-06T07:52:33;8.10;67.90
43920;DHT22;29578;51.946;5.874;2023-04-06T07:54:59;8.10;68.00
43920;DHT22;29578;51.946;5.874;2023-04-06T07:57:25;8.20;68.10
43920;DHT22;29578;51.946;5.874;2023-04-06T07:59:50;8.10;68.00
43920;DHT22;29578;51.946;5.874;2023-04-06T08:02:16;8.30;68.10
43920;DHT22;29578;51.946;5.874;2023-04-06T08:04:43;8.30;68.10
43920;DHT22;29578;51.946;5.874;2023-04-06T08:07:08;8.30;68.00
43920;DHT22;29578;51.946;5.874;2023-04-06T08:09:34;8.30;68.00
43920;DHT22;29578;51.946;5.874;2023-04-06T08:11:59;8.40;68.10
43920;DHT22;29578;51.946;5.874;2023-04-06T08:14:27;8.40;68.10
43920;DHT22;29578;51.946;5.874;2023-04-06T08:16:52;8.50;68.10
43920;DHT22;29578;51.946;5.874;2023-04-06T08:19:18;8.60;68.10
43920;DHT22;29578;51.946;5.874;2023-04-06T08:21:44;8.60;68.00
43920;DHT22;29578;51.946;5.874;2023-04-06T08:24:11;8.70;68.00
43920;DHT22;29578;51.946;5.874;2023-04-06T08:26:37;8.80;68.00
43920;DHT22;29578;51.946;5.874;2023-04-06T08:29:03;8.80;67.90
43920;DHT22;29578;51.946;5.874;2023-04-06T08:31:29;8.90;67.90
43920;DHT22;29578;51.946;5.874;2023-04-06T08:33:55;8.90;67.70
43920;DHT22;29578;51.946;5.874;2023-04-06T08:36:21;9.10;67.80
43920;DHT22;29578;51.946;5.874;2023-04-06T08:38:49;9.10;67.70
43920;DHT22;29578;51.946;5.874;2023-04-06T08:41:15;9.20;67.60
43920;DHT22;29578;51.946;5.874;2023-04-06T08:43:47;9.30;67.50
43920;DHT22;29578;51.946;5.874;2023-04-06T08:46:13;9.40;67.40
43920;DHT22;29578;51.946;5.874;2023-04-06T08:48:40;9.50;67.40
43920;DHT22;29578;51.946;5.874;2023-04-06T08:51:07;9.60;67.30
43920;DHT22;29578;51.946;5.874;2023-04-06T08:53:33;9.60;67.20
43920;DHT22;29578;51.946;5.874;2023-04-06T08:55:59;9.70;67.30
43920;DHT22;29578;51.946;5.874;2023-04-06T08:58:28;9.80;67.20
43920;DHT22;29578;51.946;5.874;2023-04-06T09:00:56;9.90;67.10
43920;DHT22;29578;51.946;5.874;2023-04-06T09:03:22;10.00;67.10
43920;DHT22;29578;51.946;5.874;2023-04-06T09:05:48;10.20;67.00
43920;DHT22;29578;51.946;5.874;2023-04-06T09:08:15;10.30;66.90
43920;DHT22;29578;51.946;5.874;2023-04-06T09:10:41;10.40;66.70
43920;DHT22;29578;51.946;5.874;2023-04-06T09:13:08;10.50;66.50
43920;DHT22;29578;51.946;5.874;2023-04-06T09:15:34;10.60;67.00
43920;DHT22;29578;51.946;5.874;2023-04-06T09:18:00;10.60;66.10
43920;DHT22;29578;51.946;5.874;2023-04-06T09:20:26;10.60;66.20
43920;DHT22;29578;51.946;5.874;2023-04-06T09:22:54;10.60;66.30
43920;DHT22;29578;51.946;5.874;2023-04-06T09:25:21;10.70;66.30
43920;DHT22;29578;51.946;5.874;2023-04-06T09:27:57;10.80;66.30
43920;DHT22;29578;51.946;5.874;2023-04-06T09:30:23;10.90;66.20
43920;DHT22;29578;51.946;5.874;2023-04-06T09:32:53;11.00;66.00
43920;DHT22;29578;51.946;5.874;2023-04-06T09:35:20;11.00;65.90
43920;DHT22;29578;51.946;5.874;2023-04-06T09:37:47;11.00;66.00
43920;DHT22;29578;51.946;5.874;2023-04-06T09:40:14;11.00;66.00
43920;DHT22;29578;51.946;5.874;2023-04-06T09:42:41;11.10;66.00
43920;DHT22;29578;51.946;5.874;2023-04-06T09:45:07;11.20;66.00
43920;DHT22;29578;51.946;5.874;2023-04-06T09:47:36;11.30;65.80
43920;DHT22;29578;51.946;5.874;2023-04-06T09:50:02;11.40;65.60
43920;DHT22;29578;51.946;5.874;2023-04-06T09:52:33;11.50;65.60
43920;DHT22;29578;51.946;5.874;2023-04-06T09:55:02;11.50;65.50
43920;DHT22;29578;51.946;5.874;2023-04-06T09:57:32;11.50;65.50
43920;DHT22;29578;51.946;5.874;2023-04-06T10:00:05;11.40;65.50
43920;DHT22;29578;51.946;5.874;2023-04-06T10:03:01;11.50;65.60
43920;DHT22;29578;51.946;5.874;2023-04-06T10:05:53;11.50;65.70
43920;DHT22;29578;51.946;5.874;2023-04-06T10:08:22;11.40;65.80
43920;DHT22;29578;51.946;5.874;2023-04-06T10:10:50;11.50;66.00
43920;DHT22;29578;51.946;5.874;2023-04-06T10:13:16;11.50;65.70
43920;DHT22;29578;51.946;5.874;2023-04-06T10:15:44;11.40;65.80
43920;DHT22;29578;51.946;5.874;2023-04-06T10:18:10;11.30;65.90
43920;DHT22;29578;51.946;5.874;2023-04-06T10:26:02;11.30;66.20
43920;DHT22;29578;51.946;5.874;2023-04-06T10:28:35;11.30;66.30
43920;DHT22;29578;51.946;5.874;2023-04-06T10:31:04;11.30;66.30
43920;DHT22;29578;51.946;5.874;2023-04-06T10:33:30;11.20;66.40
43920;DHT22;29578;51.946;5.874;2023-04-06T10:35:56;11.10;66.50
43920;DHT22;29578;51.946;5.874;2023-04-06T10:38:33;11.20;66.60
43920;DHT22;29578;51.946;5.874;2023-04-06T10:41:09;11.30;66.50
43920;DHT22;29578;51.946;5.874;2023-04-06T10:43:37;11.20;66.50
43920;DHT22;29578;51.946;5.874;2023-04-06T10:46:03;11.20;66.50
43920;DHT22;29578;51.946;5.874;2023-04-06T10:48:45;11.20;66.60
43920;DHT22;29578;51.946;5.874;2023-04-06T10:51:15;11.20;66.60
43920;DHT22;29578;51.946;5.874;2023-04-06T10:53:42;11.30;66.60
43920;DHT22;29578;51.946;5.874;2023-04-06T10:56:11;11.40;66.50
43920;DHT22;29578;51.946;5.874;2023-04-06T10:58:37;11.50;66.50
43920;DHT22;29578;51.946;5.874;2023-04-06T11:01:03;11.70;66.20
43920;DHT22;29578;51.946;5.874;2023-04-06T11:03:29;11.80;65.70
43920;DHT22;29578;51.946;5.874;2023-04-06T11:05:55;11.80;66.30
43920;DHT22;29578;51.946;5.874;2023-04-06T11:08:24;11.80;65.70
43920;DHT22;29578;51.946;5.874;2023-04-06T11:10:50;11.70;65.80
43920;DHT22;29578;51.946;5.874;2023-04-06T11:13:16;11.70;65.90
43920;DHT22;29578;51.946;5.874;2023-04-06T11:15:42;11.80;65.90
43920;DHT22;29578;51.946;5.874;2023-04-06T11:18:08;11.70;66.00
43920;DHT22;29578;51.946;5.874;2023-04-06T11:20:33;11.80;66.10
43920;DHT22;29578;51.946;5.874;2023-04-06T11:22:59;11.80;65.90
43920;DHT22;29578;51.946;5.874;2023-04-06T11:25:25;11.80;65.90
43920;DHT22;29578;51.946;5.874;2023-04-06T11:27:53;11.80;65.90
43920;DHT22;29578;51.946;5.874;2023-04-06T11:30:19;11.90;66.00
43920;DHT22;29578;51.946;5.874;2023-04-06T11:32:45;11.90;66.00
43920;DHT22;29578;51.946;5.874;2023-04-06T11:35:31;11.80;66.00
43920;DHT22;29578;51.946;5.874;2023-04-06T11:37:58;11.80;66.20
43920;DHT22;29578;51.946;5.874;2023-04-06T11:40:23;11.80;66.40
43920;DHT22;29578;51.946;5.874;2023-04-06T11:42:57;11.60;66.60
43920;DHT22;29578;51.946;5.874;2023-04-06T11:45:23;11.50;67.00
43920;DHT22;29578;51.946;5.874;2023-04-06T11:48:01;11.40;67.20
43920;DHT22;29578;51.946;5.874;2023-04-06T11:50:32;11.30;67.70
43920;DHT22;29578;51.946;5.874;2023-04-06T11:53:00;11.20;68.00
43920;DHT22;29578;51.946;5.874;2023-04-06T11:55:27;11.20;68.10
43920;DHT22;29578;51.946;5.874;2023-04-06T11:57:52;11.20;68.40
43920;DHT22;29578;51.946;5.874;2023-04-06T12:00:18;11.10;68.70
43920;DHT22;29578;51.946;5.874;2023-04-06T12:02:47;10.90;69.10
43920;DHT22;29578;51.946;5.874;2023-04-06T12:05:12;10.90;69.40
43920;DHT22;29578;51.946;5.874;2023-04-06T12:07:38;10.80;69.50
43920;DHT22;29578;51.946;5.874;2023-04-06T12:10:04;10.80;69.60
43920;DHT22;29578;51.946;5.874;2023-04-06T12:12:30;10.80;69.60
43920;DHT22;29578;51.946;5.874;2023-04-06T12:14:57;10.70;69.90
43920;DHT22;29578;51.946;5.874;2023-04-06T12:17:22;10.60;70.10
43920;DHT22;29578;51.946;5.874;2023-04-06T12:19:48;10.60;70.40
43920;DHT22;29578;51.946;5.874;2023-04-06T12:22:14;10.50;70.30
43920;DHT22;29578;51.946;5.874;2023-04-06T12:24:40;10.30;70.70
43920;DHT22;29578;51.946;5.874;2023-04-06T12:27:06;10.20;71.20
43920;DHT22;29578;51.946;5.874;2023-04-06T12:29:32;10.10;71.40
43920;DHT22;29578;51.946;5.874;2023-04-06T12:31:57;10.00;71.70
43920;DHT22;29578;51.946;5.874;2023-04-06T12:34:23;10.00;71.80
43920;DHT22;29578;51.946;5.874;2023-04-06T12:36:49;9.90;71.80
43920;DHT22;29578;51.946;5.874;2023-04-06T12:39:15;9.90;71.90
43920;DHT22;29578;51.946;5.874;2023-04-06T12:41:42;9.90;71.90
43920;DHT22;29578;51.946;5.874;2023-04-06T12:44:07;9.90;72.00
43920;DHT22;29578;51.946;5.874;2023-04-06T12:46:33;9.80;72.20
43920;DHT22;29578;51.946;5.874;2023-04-06T12:48:59;9.80;72.40
43920;DHT22;29578;51.946;5.874;2023-04-06T12:51:27;9.70;72.60
43920;DHT22;29578;51.946;5.874;2023-04-06T12:53:53;9.70;72.70
43920;DHT22;29578;51.946;5.874;2023-04-06T12:56:19;9.70;72.80
43920;DHT22;29578;51.946;5.874;2023-04-06T12:58:46;9.60;72.90
43920;DHT22;29578;51.946;5.874;2023-04-06T13:01:12;9.60;73.00
43920;DHT22;29578;51.946;5.874;2023-04-06T13:03:39;9.50;73.20
43920;DHT22;29578;51.946;5.874;2023-04-06T13:06:05;9.50;73.30
43920;DHT22;29578;51.946;5.874;2023-04-06T13:08:31;9.50;73.50
43920;DHT22;29578;51.946;5.874;2023-04-06T13:10:56;9.40;73.60
43920;DHT22;29578;51.946;5.874;2023-04-06T13:13:24;9.50;73.70
43920;DHT22;29578;51.946;5.874;2023-04-06T13:15:51;9.40;73.60
43920;DHT22;29578;51.946;5.874;2023-04-06T13:18:16;9.40;73.80
43920;DHT22;29578;51.946;5.874;2023-04-06T13:20:42;9.40;73.90
43920;DHT22;29578;51.946;5.874;2023-04-06T13:23:08;9.30;74.00
43920;DHT22;29578;51.946;5.874;2023-04-06T13:25:34;9.30;74.20
43920;DHT22;29578;51.946;5.874;2023-04-06T13:28:00;9.30;74.30
43920;DHT22;29578;51.946;5.874;2023-04-06T13:30:26;9.40;74.30
43920;DHT22;29578;51.946;5.874;2023-04-06T13:32:51;9.30;74.40
43920;DHT22;29578;51.946;5.874;2023-04-06T13:35:18;9.20;74.40
43920;DHT22;29578;51.946;5.874;2023-04-06T13:37:44;9.30;74.50
43920;DHT22;29578;51.946;5.874;2023-04-06T13:40:10;9.40;74.70
43920;DHT22;29578;51.946;5.874;2023-04-06T13:42:36;9.40;74.60
43920;DHT22;29578;51.946;5.874;2023-04-06T13:45:03;9.40;74.60
43920;DHT22;29578;51.946;5.874;2023-04-06T13:47:29;9.40;74.60
43920;DHT22;29578;51.946;5.874;2023-04-06T13:49:55;9.30;74.70
43920;DHT22;29578;51.946;5.874;2023-04-06T13:52:21;9.30;74.80
43920;DHT22;29578;51.946;5.874;2023-04-06T13:54:48;9.30;75.00
43920;DHT22;29578;51.946;5.874;2023-04-06T13:57:14;9.30;74.90
43920;DHT22;29578;51.946;5.874;2023-04-06T13:59:40;9.40;75.10
43920;DHT22;29578;51.946;5.874;2023-04-06T14:02:07;9.40;75.20
43920;DHT22;29578;51.946;5.874;2023-04-06T14:04:34;9.40;75.20
43920;DHT22;29578;51.946;5.874;2023-04-06T14:07:00;9.30;75.30
43920;DHT22;29578;51.946;5.874;2023-04-06T14:09:27;9.50;75.40
43920;DHT22;29578;51.946;5.874;2023-04-06T14:11:53;9.40;75.30
43920;DHT22;29578;51.946;5.874;2023-04-06T14:14:19;9.50;75.40
43920;DHT22;29578;51.946;5.874;2023-04-06T14:16:46;9.50;75.40
43920;DHT22;29578;51.946;5.874;2023-04-06T14:19:13;9.50;75.40
43920;DHT22;29578;51.946;5.874;2023-04-06T14:21:41;9.60;75.50
43920;DHT22;29578;51.946;5.874;2023-04-06T14:24:08;9.50;75.50
43920;DHT22;29578;51.946;5.874;2023-04-06T14:26:35;9.60;75.60
43920;DHT22;29578;51.946;5.874;2023-04-06T14:29:01;9.60;75.60
43920;DHT22;29578;51.946;5.874;2023-04-06T14:31:26;9.70;75.70
43920;DHT22;29578;51.946;5.874;2023-04-06T14:33:52;9.70;75.70
43920;DHT22;29578;51.946;5.874;2023-04-06T14:36:18;9.60;76.40
43920;DHT22;29578;51.946;5.874;2023-04-06T14:38:44;9.70;76.00
43920;DHT22;29578;51.946;5.874;2023-04-06T14:41:20;9.70;76.10
43920;DHT22;29578;51.946;5.874;2023-04-06T14:43:47;9.60;76.10
43920;DHT22;29578;51.946;5.874;2023-04-06T14:46:12;9.50;76.30
43920;DHT22;29578;51.946;5.874;2023-04-06T14:48:38;9.50;76.50
43920;DHT22;29578;51.946;5.874;2023-04-06T14:51:04;9.50;76.70
43920;DHT22;29578;51.946;5.874;2023-04-06T14:53:30;9.40;76.70
43920;DHT22;29578;51.946;5.874;2023-04-06T14:55:56;9.40;76.80
43920;DHT22;29578;51.946;5.874;2023-04-06T14:58:22;9.30;76.90
43920;DHT22;29578;51.946;5.874;2023-04-06T15:00:49;9.20;77.10
43920;DHT22;29578;51.946;5.874;2023-04-06T15:03:15;9.20;77.30
43920;DHT22;29578;51.946;5.874;2023-04-06T15:05:41;9.10;77.40
43920;DHT22;29578;51.946;5.874;2023-04-06T15:08:07;9.20;77.50
43920;DHT22;29578;51.946;5.874;2023-04-06T15:10:35;9.20;77.70
43920;DHT22;29578;51.946;5.874;2023-04-06T15:13:01;9.10;77.70
43920;DHT22;29578;51.946;5.874;2023-04-06T15:15:28;9.10;77.90
43920;DHT22;29578;51.946;5.874;2023-04-06T15:17:53;9.00;77.90
43920;DHT22;29578;51.946;5.874;2023-04-06T15:20:19;9.10;77.90
43920;DHT22;29578;51.946;5.874;2023-04-06T15:22:45;9.00;77.90
43920;DHT22;29578;51.946;5.874;2023-04-06T15:25:10;9.00;78.10
43920;DHT22;29578;51.946;5.874;2023-04-06T15:27:36;9.10;78.20
43920;DHT22;29578;51.946;5.874;2023-04-06T15:30:02;9.00;78.20
43920;DHT22;29578;51.946;5.874;2023-04-06T15:32:28;9.10;78.30
43920;DHT22;29578;51.946;5.874;2023-04-06T15:34:55;9.10;79.00
43920;DHT22;29578;51.946;5.874;2023-04-06T15:37:21;9.00;78.40
43920;DHT22;29578;51.946;5.874;2023-04-06T15:39:46;9.00;78.40
43920;DHT22;29578;51.946;5.874;2023-04-06T15:42:12;8.90;78.40